Oakley, Kansas
Current Conditions -  °F | °C
As of 12:15 PM on Tuesday 21 Oct 2014 (Local Time) from KCBK Reporting Station
Clear Clear  
Wind Chill: 70°   Ceiling: Unl
Heat Index: 70°   Visibility: 10mi
Dew Point: 59°   Wind: 18mph
Humidity: 68%   Direction: 150°SSE
Pressure: 30.06"   Gusts: NA
Location:  39.13°N, 100.86°W
Report Text: KCBK 211715Z AUTO 15016KT 10SM CLR 21/15 A3006 RMK AO2
Loading
Personal Weather Stations






























Interactive Weather Map
Tropical Storm Tracking
New forecast layout! Learn more

10-Day Weather Forecast

Advertisements
Track Severe Weather on mobile